Time;durP1;ratioP1;P1;durP2;ratioP2;P2;SDS_P1;SDS_P2;PMS_P1;PMS_P2;Temp;Humidity;BMP_temperature;BMP_pressure;BME280_temperature;BME280_humidity;BME280_pressure;Samples;Min_cycle;Max_cycle;Signal;HPM_P1;HPM_P2
2024/04/05 00:02:17;;;;;;;3.40;1.80;;;12.50;99.90;;;;;;5064165;28;20397;-82
2024/04/05 00:04:44;;;;;;;2.72;2.10;;;12.50;99.90;;;;;;5062516;28;20470;-83
2024/04/05 00:07:10;;;;;;;2.60;1.80;;;;;;;;;;5056858;28;20388;-83
2024/04/05 00:09:35;;;;;;;2.30;1.70;;;13.30;99.90;;;;;;5046277;28;20394;-83
2024/04/05 00:12:01;;;;;;;2.47;1.80;;;12.80;99.90;;;;;;5050520;28;20416;-82
2024/04/05 00:14:26;;;;;;;4.18;1.95;;;12.60;99.90;;;;;;5059602;28;20401;-82
2024/04/05 00:16:52;;;;;;;3.27;2.20;;;12.50;99.90;;;;;;5048759;28;20412;-82
2024/04/05 00:19:17;;;;;;;3.53;1.60;;;11.80;99.90;;;;;;5047066;28;20453;-82
2024/04/05 00:21:43;;;;;;;2.13;1.90;;;12.40;99.90;;;;;;5054006;28;20917;-82
2024/04/05 00:24:08;;;;;;;3.10;2.10;;;12.20;99.90;;;;;;5037485;28;20448;-82
2024/04/05 00:26:35;;;;;;;5.10;2.10;;;12.80;99.90;;;;;;5064379;28;20429;-83
2024/04/05 00:29:00;;;;;;;3.80;1.80;;;11.70;99.90;;;;;;5066157;28;20392;-82
2024/04/05 00:31:26;;;;;;;3.00;1.90;;;12.20;99.90;;;;;;5065682;28;20638;-82
2024/04/05 00:33:52;;;;;;;3.73;1.90;;;12.40;99.90;;;;;;5029692;28;20405;-83
2024/04/05 00:36:19;;;;;;;3.40;1.85;;;12.70;99.90;;;;;;5041235;28;20389;-82
2024/04/05 00:38:44;;;;;;;2.83;1.70;;;12.00;99.90;;;;;;5063480;28;20397;-82
2024/04/05 00:41:10;;;;;;;1.90;1.60;;;12.10;99.90;;;;;;5049585;28;20397;-82
2024/04/05 00:43:35;;;;;;;2.72;1.60;;;12.40;99.90;;;;;;5035806;28;21106;-83
2024/04/05 00:46:04;;;;;;;2.27;1.70;;;12.30;99.90;;;;;;5049099;28;20407;-82
2024/04/05 00:48:32;;;;;;;2.55;1.85;;;12.20;99.90;;;;;;5047585;28;20399;-82
2024/04/05 00:50:58;;;;;;;2.83;1.90;;;12.50;99.90;;;;;;5066600;28;20475;-82
2024/04/05 00:53:26;;;;;;;3.00;1.60;;;12.50;99.90;;;;;;5052546;28;20395;-82
2024/04/05 00:55:55;;;;;;;3.00;1.70;;;12.40;99.90;;;;;;5046640;28;20406;-83
2024/04/05 00:58:21;;;;;;;3.80;1.90;;;12.10;99.90;;;;;;5027486;28;20379;-82
2024/04/05 01:00:47;;;;;;;3.30;2.00;;;12.80;99.90;;;;;;5055489;28;20393;-82
2024/04/05 01:03:13;;;;;;;2.10;1.80;;;12.50;99.90;;;;;;5045747;28;20507;-83
2024/04/05 01:05:39;;;;;;;3.38;2.15;;;12.40;99.90;;;;;;5035471;28;20410;-83
2024/04/05 01:08:07;;;;;;;2.92;1.98;;;12.70;99.90;;;;;;5061268;28;20401;-82
2024/04/05 01:10:35;;;;;;;2.10;1.67;;;12.40;99.90;;;;;;5065450;28;20416;-82
2024/04/05 01:13:05;;;;;;;3.47;2.38;;;12.30;99.90;;;;;;5044675;28;20395;-82
2024/04/05 01:15:32;;;;;;;3.07;2.27;;;12.90;99.90;;;;;;5042296;28;20900;-83
2024/04/05 01:17:59;;;;;;;2.42;2.20;;;12.30;99.90;;;;;;5058281;28;20791;-82
2024/04/05 01:20:26;;;;;;;4.40;2.20;;;12.70;99.90;;;;;;5045693;28;20396;-82
2024/04/05 01:22:53;;;;;;;3.80;2.30;;;11.00;99.90;;;;;;5033893;28;20416;-83
2024/04/05 01:25:22;;;;;;;4.88;2.80;;;12.70;99.90;;;;;;5082618;22;20437;-79
2024/04/05 01:27:48;;;;;;;3.50;2.42;;;12.70;99.90;;;;;;5035184;28;20480;-79
2024/04/05 01:30:14;;;;;;;4.47;2.50;;;12.30;99.90;;;;;;5037646;28;20401;-79
2024/04/05 01:32:43;;;;;;;3.60;2.90;;;12.10;99.90;;;;;;5046781;28;20418;-79
2024/04/05 01:35:08;;;;;;;3.10;2.40;;;12.40;99.90;;;;;;5034159;28;20379;-79
2024/04/05 01:37:34;;;;;;;2.65;2.03;;;13.00;99.90;;;;;;5032489;28;20401;-79
2024/04/05 01:39:59;;;;;;;3.90;2.30;;;12.30;99.90;;;;;;5036677;28;20480;-78
2024/04/05 01:42:25;;;;;;;3.20;2.30;;;12.30;99.90;;;;;;5049017;28;20410;-79
2024/04/05 01:44:50;;;;;;;5.10;3.00;;;12.40;99.90;;;;;;5015477;28;20398;-79
2024/04/05 01:47:16;;;;;;;4.87;2.00;;;12.60;99.90;;;;;;5021564;28;20389;-79
2024/04/05 01:49:41;;;;;;;3.80;2.87;;;12.50;99.90;;;;;;5051346;28;20892;-79
2024/04/05 01:52:07;;;;;;;2.35;1.83;;;12.20;99.90;;;;;;5038918;28;20408;-78
2024/04/05 01:54:32;;;;;;;2.93;1.80;;;12.60;99.90;;;;;;5043526;28;20399;-77
2024/04/05 01:56:58;;;;;;;4.77;2.20;;;12.50;99.90;;;;;;5023022;28;20407;-79
2024/04/05 01:59:24;;;;;;;5.75;2.38;;;13.00;99.90;;;;;;5016563;28;20379;-79
2024/04/05 02:01:49;;;;;;;3.90;1.98;;;12.50;99.90;;;;;;5035065;28;21064;-79
2024/04/05 02:04:15;;;;;;;3.70;2.07;;;12.50;99.90;;;;;;5034534;28;20401;-79
2024/04/05 02:06:41;;;;;;;2.75;1.77;;;12.80;99.90;;;;;;5039995;28;20461;-79
2024/04/05 02:09:08;;;;;;;4.07;1.90;;;12.10;99.90;;;;;;5028193;28;20408;-79
2024/04/05 02:11:33;;;;;;;2.60;2.40;;;12.50;99.90;;;;;;5035986;28;20401;-79
2024/04/05 02:13:59;;;;;;;2.83;1.90;;;12.70;99.90;;;;;;5025456;28;20756;-79
2024/04/05 02:16:25;;;;;;;5.80;2.30;;;12.40;99.90;;;;;;5024808;28;20482;-79
2024/04/05 02:18:50;;;;;;;3.70;2.10;;;12.40;99.90;;;;;;5033349;28;20498;-79
2024/04/05 02:21:16;;;;;;;4.60;2.10;;;12.50;99.90;;;;;;5028024;28;20397;-79
2024/04/05 02:23:41;;;;;;;4.20;1.70;;;12.30;99.90;;;;;;5027635;28;20931;-79
2024/04/05 02:26:07;;;;;;;4.40;1.70;;;12.20;99.90;;;;;;5017642;28;20425;-79
2024/04/05 02:28:34;;;;;;;5.60;2.10;;;12.40;99.90;;;;;;5032252;28;20400;-78
2024/04/05 02:30:59;;;;;;;2.23;1.80;;;12.50;99.90;;;;;;5014819;28;20399;-79
2024/04/05 02:33:25;;;;;;;3.80;1.53;;;12.30;99.90;;;;;;5024712;28;20393;-79
2024/04/05 02:35:59;;;;;;;4.05;2.30;;;12.80;99.90;;;;;;5037317;28;20897;-79
2024/04/05 02:38:25;;;;;;;2.90;1.57;;;13.90;99.90;;;;;;5058980;28;20468;-78
2024/04/05 02:40:54;;;;;;;3.10;1.50;;;12.30;99.90;;;;;;5041556;28;20381;-79
2024/04/05 02:43:20;;;;;;;2.05;1.55;;;12.20;99.90;;;;;;5049478;28;20395;-79
2024/04/05 02:45:46;;;;;;;3.20;1.60;;;12.40;99.90;;;;;;5038421;28;20545;-80
2024/04/05 02:48:11;;;;;;;3.45;1.80;;;12.20;99.90;;;;;;5052160;28;20439;-79
2024/04/05 02:50:37;;;;;;;5.32;1.80;;;12.70;99.90;;;;;;5056487;28;20416;-79
2024/04/05 02:53:03;;;;;;;4.30;1.53;;;12.90;99.90;;;;;;5044998;28;20396;-78
2024/04/05 02:55:28;;;;;;;2.10;1.70;;;12.60;99.90;;;;;;5037080;28;20385;-79
2024/04/05 02:57:54;;;;;;;3.90;1.95;;;12.60;99.90;;;;;;5046024;28;20403;-78
2024/04/05 03:00:19;;;;;;;3.50;1.60;;;12.40;99.90;;;;;;5020721;28;20751;-79
2024/04/05 03:02:45;;;;;;;4.20;1.73;;;11.50;99.90;;;;;;5036121;28;20754;-79
2024/04/05 03:05:12;;;;;;;3.33;2.00;;;12.60;99.90;;;;;;5024361;28;20455;-79
2024/04/05 03:07:37;;;;;;;2.10;1.70;;;12.30;99.90;;;;;;5022022;28;20437;-78
2024/04/05 03:10:04;;;;;;;4.95;1.90;;;12.60;99.90;;;;;;5066548;28;20413;-78
2024/04/05 03:12:29;;;;;;;3.30;1.98;;;12.60;99.90;;;;;;5042571;28;20398;-77
2024/04/05 03:14:55;;;;;;;4.32;1.77;;;12.60;99.90;;;;;;5058988;28;20896;-79
2024/04/05 03:17:20;;;;;;;2.85;1.95;;;11.90;99.90;;;;;;5022601;28;20395;-79
2024/04/05 03:19:46;;;;;;;2.87;1.70;;;12.20;99.90;;;;;;5039148;28;20385;-79
2024/04/05 03:22:11;;;;;;;3.70;1.73;;;12.50;99.90;;;;;;5057650;28;20425;-79
2024/04/05 03:24:37;;;;;;;2.22;1.55;;;12.30;99.90;;;;;;5056203;28;20481;-76
2024/04/05 03:27:03;;;;;;;2.30;1.50;;;12.40;99.90;;;;;;5064618;28;20432;-77
2024/04/05 03:29:29;;;;;;;4.78;1.45;;;12.50;99.90;;;;;;5062859;28;20415;-79
2024/04/05 03:31:54;;;;;;;4.07;1.60;;;12.20;99.90;;;;;;5052120;28;20401;-79
2024/04/05 03:34:20;;;;;;;3.03;2.10;;;12.20;99.90;;;;;;5056642;28;20403;-78
2024/04/05 03:36:46;;;;;;;3.00;1.43;;;12.60;99.90;;;;;;5024407;28;20477;-78
2024/04/05 03:39:13;;;;;;;4.20;1.70;;;12.00;99.90;;;;;;5039149;28;20387;-79
2024/04/05 03:41:38;;;;;;;3.58;2.05;;;12.40;99.90;;;;;;5039553;28;20787;-79
2024/04/05 03:44:05;;;;;;;2.43;1.70;;;12.30;99.90;;;;;;5049910;28;20393;-79
2024/04/05 03:46:35;;;;;;;4.95;1.70;;;12.30;99.90;;;;;;5038987;28;20394;-79
2024/04/05 03:49:03;;;;;;;3.13;1.50;;;12.50;99.90;;;;;;5018214;28;20399;-79
2024/04/05 03:51:29;;;;;;;2.20;1.60;;;12.00;99.90;;;;;;5040003;28;20483;-79
2024/04/05 03:53:54;;;;;;;1.80;1.30;;;12.00;99.90;;;;;;5037544;28;20393;-79
2024/04/05 03:56:20;;;;;;;1.60;1.50;;;12.20;99.90;;;;;;5055208;28;20866;-79
2024/04/05 03:58:49;;;;;;;2.80;1.55;;;11.90;99.90;;;;;;5058128;28;20431;-78
2024/04/05 04:01:15;;;;;;;2.53;1.55;;;11.90;99.90;;;;;;5064075;28;20479;-77
2024/04/05 04:03:42;;;;;;;5.00;1.80;;;13.10;99.90;;;;;;5056539;28;20397;-79
2024/04/05 04:06:08;;;;;;;2.95;1.50;;;12.20;99.90;;;;;;5037984;28;20393;-78
2024/04/05 04:08:33;;;;;;;3.80;1.50;;;11.40;99.90;;;;;;5055902;28;20408;-79
2024/04/05 04:10:59;;;;;;;2.67;1.67;;;12.00;99.90;;;;;;5053724;28;20750;-79
2024/04/05 04:13:25;;;;;;;3.20;1.60;;;12.30;99.90;;;;;;5017325;28;20395;-79
2024/04/05 04:15:51;;;;;;;2.85;1.50;;;12.00;99.90;;;;;;5035143;28;20393;-79
2024/04/05 04:18:16;;;;;;;4.00;1.90;;;12.10;99.90;;;;;;5017863;28;20395;-78
2024/04/05 04:20:41;;;;;;;3.40;1.80;;;11.90;99.90;;;;;;5035219;28;20401;-79
2024/04/05 04:23:07;;;;;;;4.38;1.70;;;11.80;99.90;;;;;;5037592;28;20793;-79
2024/04/05 04:25:34;;;;;;;2.33;1.60;;;12.10;99.90;;;;;;5046058;28;20780;-79
2024/04/05 04:27:59;;;;;;;2.65;1.65;;;11.80;99.90;;;;;;5017178;28;20394;-79
2024/04/05 04:30:25;;;;;;;4.50;1.60;;;12.60;99.90;;;;;;5035002;28;20907;-79
2024/04/05 04:32:51;;;;;;;3.60;1.50;;;12.00;99.90;;;;;;5020079;28;20484;-79
2024/04/05 04:35:16;;;;;;;4.30;1.83;;;11.90;99.90;;;;;;5034884;28;20439;-78
2024/04/05 04:37:42;;;;;;;4.07;1.70;;;11.70;99.90;;;;;;5017404;28;20437;-79
2024/04/05 04:40:11;;;;;;;1.60;1.50;;;11.90;99.90;;;;;;5040430;28;20772;-79
2024/04/05 04:42:37;;;;;;;3.40;1.90;;;11.70;99.90;;;;;;5039935;28;20395;-78
2024/04/05 04:45:05;;;;;;;2.80;1.60;;;12.10;99.90;;;;;;5016793;28;20395;-79
2024/04/05 04:47:31;;;;;;;1.70;1.60;;;12.00;99.90;;;;;;5042029;28;20472;-79
2024/04/05 04:49:56;;;;;;;2.75;1.52;;;11.80;99.90;;;;;;5034905;28;20389;-80
2024/04/05 04:52:22;;;;;;;4.47;1.85;;;12.10;99.90;;;;;;5024659;28;20486;-80
2024/04/05 04:54:47;;;;;;;4.60;1.90;;;12.10;99.90;;;;;;5035371;28;20383;-80
2024/04/05 04:57:13;;;;;;;3.67;1.70;;;11.60;99.90;;;;;;5017846;28;20489;-81
2024/04/05 04:59:39;;;;;;;3.65;2.33;;;11.80;99.90;;;;;;5021154;28;20394;-78
2024/04/05 05:02:04;;;;;;;2.70;1.90;;;11.30;99.90;;;;;;5043471;28;20424;-79
2024/04/05 05:04:30;;;;;;;5.70;2.17;;;11.20;99.90;;;;;;5043984;28;20442;-80
2024/04/05 05:06:55;;;;;;;4.00;2.17;;;11.50;99.90;;;;;;5018391;28;20486;-80
2024/04/05 05:09:21;;;;;;;2.43;1.70;;;11.40;99.90;;;;;;5018347;28;20387;-79
2024/04/05 05:11:47;;;;;;;3.78;1.90;;;11.50;99.90;;;;;;5040674;28;20418;-81
2024/04/05 05:14:13;;;;;;;3.00;1.90;;;11.30;99.90;;;;;;5040962;28;20389;-80
2024/04/05 05:16:38;;;;;;;5.40;2.10;;;11.40;99.90;;;;;;5046688;28;20444;-79
2024/04/05 05:19:04;;;;;;;1.70;1.60;;;11.40;99.90;;;;;;5050465;28;20806;-80
2024/04/05 05:21:32;;;;;;;2.00;1.50;;;11.10;99.90;;;;;;5060196;28;20394;-80
2024/04/05 05:23:58;;;;;;;3.70;1.90;;;10.80;99.90;;;;;;5049657;28;21010;-80
2024/04/05 05:26:23;;;;;;;2.63;2.00;;;11.50;99.90;;;;;;5044725;28;20784;-80
2024/04/05 05:28:49;;;;;;;3.00;1.80;;;10.80;99.90;;;;;;5044629;28;20398;-81
2024/04/05 05:31:15;;;;;;;3.47;1.60;;;;;;;;;;5053737;28;20912;-78
2024/04/05 05:33:40;;;;;;;4.00;1.60;;;11.20;99.90;;;;;;5050254;28;20474;-80
2024/04/05 05:36:06;;;;;;;3.23;1.80;;;11.10;99.90;;;;;;5045737;28;20397;-80
2024/04/05 05:38:31;;;;;;;2.67;1.70;;;11.30;99.90;;;;;;5062164;28;20381;-78
2024/04/05 05:40:57;;;;;;;2.78;1.85;;;11.20;99.90;;;;;;5045653;28;20412;-77
2024/04/05 05:43:23;;;;;;;1.90;1.67;;;11.10;99.90;;;;;;5048969;28;20385;-78
2024/04/05 05:45:48;;;;;;;6.23;1.97;;;11.50;99.90;;;;;;5055051;28;20744;-78
2024/04/05 05:48:14;;;;;;;4.30;1.90;;;11.30;99.90;;;;;;5034369;28;21721;-78
2024/04/05 05:50:40;;;;;;;4.47;2.00;;;11.30;99.90;;;;;;5051085;28;20516;-79
2024/04/05 05:53:06;;;;;;;2.92;2.00;;;11.00;99.90;;;;;;5053110;28;20739;-79
2024/04/05 05:55:32;;;;;;;3.15;1.80;;;11.80;99.90;;;;;;5053813;28;20381;-79
2024/04/05 05:57:57;;;;;;;2.30;1.90;;;11.40;99.90;;;;;;5054102;28;20386;-79
2024/04/05 06:00:23;;;;;;;2.60;2.30;;;12.00;99.90;;;;;;5053636;28;20470;-79
2024/04/05 06:02:49;;;;;;;2.80;1.83;;;11.60;99.90;;;;;;5035758;28;20394;-79
2024/04/05 06:05:15;;;;;;;4.90;1.90;;;11.80;99.90;;;;;;5035743;28;20433;-78
2024/04/05 06:07:41;;;;;;;3.25;1.80;;;11.10;99.90;;;;;;5047284;28;20397;-79
2024/04/05 06:10:07;;;;;;;3.60;1.60;;;11.80;99.90;;;;;;5037085;28;20466;-79
2024/04/05 06:12:38;;;;;;;2.13;1.93;;;12.10;99.90;;;;;;5042872;28;20897;-79
2024/04/05 06:15:04;;;;;;;3.33;1.67;;;12.00;99.90;;;;;;5053178;28;20412;-79
2024/04/05 06:17:34;;;;;;;3.90;2.00;;;12.30;99.90;;;;;;5053234;28;20381;-79
2024/04/05 06:20:00;;;;;;;2.50;1.48;;;11.80;99.90;;;;;;5052915;28;20385;-79
2024/04/05 06:22:27;;;;;;;4.55;1.90;;;14.20;99.90;;;;;;5051492;28;20385;-79
2024/04/05 06:24:53;;;;;;;4.80;2.03;;;12.40;99.90;;;;;;5052783;28;20476;-79
2024/04/05 06:27:20;;;;;;;1.70;1.60;;;13.10;99.90;;;;;;5034944;28;20480;-79
2024/04/05 06:29:49;;;;;;;4.40;2.40;;;12.00;99.90;;;;;;5051618;28;20417;-79
2024/04/05 06:32:16;;;;;;;3.20;1.97;;;12.00;99.90;;;;;;5049448;28;20440;-79
2024/04/05 06:34:42;;;;;;;4.30;2.30;;;12.30;99.90;;;;;;5050721;28;20409;-78
2024/04/05 06:37:07;;;;;;;3.70;2.00;;;12.10;99.90;;;;;;5051843;28;20389;-80
2024/04/05 06:39:33;;;;;;;2.97;1.60;;;12.30;99.90;;;;;;5060810;28;20393;-81
2024/04/05 06:41:59;;;;;;;2.92;1.60;;;12.50;99.90;;;;;;5035851;28;20484;-81
2024/04/05 06:44:27;;;;;;;3.20;1.60;;;13.00;99.90;;;;;;5051984;28;20397;-81
2024/04/05 06:46:52;;;;;;;3.17;1.33;;;12.30;99.90;;;;;;5037178;28;20469;-81
2024/04/05 06:49:18;;;;;;;3.20;1.97;;;12.50;99.90;;;;;;5035396;28;20476;-81
2024/04/05 06:51:43;;;;;;;2.83;1.80;;;11.80;99.90;;;;;;5052541;28;20413;-80
2024/04/05 06:54:09;;;;;;;1.60;1.40;;;13.20;99.90;;;;;;5052114;28;20390;-80
2024/04/05 06:56:34;;;;;;;5.93;1.90;;;12.90;99.90;;;;;;5047850;28;20390;-79
2024/04/05 06:59:00;;;;;;;2.30;1.50;;;13.40;99.90;;;;;;5039785;28;20398;-80
2024/04/05 07:01:26;;;;;;;2.90;1.40;;;12.90;99.90;;;;;;5034822;28;20916;-80
2024/04/05 07:03:51;;;;;;;3.17;1.40;;;13.40;99.90;;;;;;5031255;28;20383;-80
2024/04/05 07:06:17;;;;;;;3.40;1.50;;;13.10;99.90;;;;;;5039286;28;20411;-79
2024/04/05 07:08:42;;;;;;;3.88;1.30;;;12.70;99.90;;;;;;5044296;28;20463;-80
2024/04/05 07:11:09;;;;;;;3.03;1.40;;;13.80;99.90;;;;;;5034374;28;20393;-81
2024/04/05 07:13:35;;;;;;;2.00;1.60;;;13.40;99.90;;;;;;5034359;28;20390;-81
2024/04/05 07:16:01;;;;;;;2.53;1.60;;;13.20;99.90;;;;;;5031631;28;20397;-80
2024/04/05 07:18:26;;;;;;;4.22;1.58;;;13.00;99.90;;;;;;5017305;28;20478;-82
2024/04/05 07:20:54;;;;;;;2.70;1.60;;;12.80;99.90;;;;;;5014902;28;20464;-81
2024/04/05 07:23:20;;;;;;;3.05;1.58;;;13.60;99.90;;;;;;5037687;28;20396;-81
2024/04/05 07:25:45;;;;;;;2.60;1.70;;;13.60;99.90;;;;;;5032061;28;20834;-80
2024/04/05 07:28:11;;;;;;;1.60;1.40;;;13.60;99.90;;;;;;5056015;28;20421;-81
2024/04/05 07:30:38;;;;;;;3.22;1.50;;;14.40;99.90;;;;;;5058232;28;20498;-80
2024/04/05 07:33:04;;;;;;;4.28;1.63;;;13.80;99.90;;;;;;5059974;28;20385;-78
2024/04/05 07:35:30;;;;;;;2.60;1.40;;;14.10;99.90;;;;;;5040343;28;20393;-77
2024/04/05 07:37:56;;;;;;;2.50;1.60;;;15.30;99.90;;;;;;5070449;28;20393;-78
2024/04/05 07:40:23;;;;;;;2.50;1.20;;;13.90;99.90;;;;;;5059899;28;20897;-78
2024/04/05 07:42:53;;;;;;;1.75;1.65;;;14.20;99.90;;;;;;5031421;28;20778;-78
2024/04/05 07:45:20;;;;;;;3.05;1.58;;;15.10;99.90;;;;;;5036529;28;20474;-79
2024/04/05 07:47:49;;;;;;;2.80;1.80;;;14.40;99.90;;;;;;5054467;28;20404;-79
2024/04/05 07:50:15;;;;;;;3.17;1.23;;;14.20;99.90;;;;;;5038019;28;21032;-79
2024/04/05 07:52:41;;;;;;;3.20;1.85;;;15.10;99.90;;;;;;5055414;28;20757;-79
2024/04/05 07:55:08;;;;;;;4.32;1.50;;;15.40;99.90;;;;;;5050807;28;20392;-79
2024/04/05 07:57:33;;;;;;;2.27;1.40;;;15.10;99.90;;;;;;5059258;28;20401;-78
2024/04/05 07:59:59;;;;;;;1.90;1.30;;;14.70;99.90;;;;;;5078299;28;20392;-79
2024/04/05 08:02:29;;;;;;;2.80;1.60;;;15.30;99.90;;;;;;5058237;28;20549;-80
2024/04/05 08:04:58;;;;;;;1.50;1.30;;;15.70;99.90;;;;;;5047351;28;20390;-80
2024/04/05 08:07:24;;;;;;;1.80;1.42;;;15.50;99.90;;;;;;5040428;28;20420;-80
2024/04/05 08:09:53;;;;;;;2.83;1.40;;;15.80;99.90;;;;;;5051774;28;20390;-79
2024/04/05 08:12:19;;;;;;;3.67;1.60;;;15.40;99.90;;;;;;5068704;28;20382;-78
2024/04/05 08:14:45;;;;;;;1.63;1.20;;;16.20;99.90;;;;;;5064044;28;20388;-80
2024/04/05 08:17:12;;;;;;;2.50;1.40;;;16.40;99.90;;;;;;5058391;28;20386;-80
2024/04/05 08:19:38;;;;;;;4.63;1.40;;;16.30;99.90;;;;;;5056558;28;20393;-80
2024/04/05 08:22:04;;;;;;;1.63;1.30;;;16.60;99.90;;;;;;5056690;28;20389;-79
2024/04/05 08:24:30;;;;;;;1.20;0.80;;;16.50;99.90;;;;;;5038073;28;20393;-80
2024/04/05 08:26:55;;;;;;;2.00;1.10;;;17.60;99.90;;;;;;5055217;28;20402;-80
2024/04/05 08:29:24;;;;;;;2.60;1.20;;;17.20;99.90;;;;;;5038406;28;20401;-80
2024/04/05 08:31:50;;;;;;;3.70;1.40;;;17.90;99.90;;;;;;5055698;28;20410;-80
2024/04/05 08:34:16;;;;;;;4.18;1.65;;;17.50;99.90;;;;;;5038345;28;20464;-79
2024/04/05 08:36:47;;;;;;;2.00;1.30;;;18.40;99.90;;;;;;5055479;28;20477;-80
2024/04/05 08:39:13;;;;;;;3.17;1.40;;;17.60;99.90;;;;;;5056034;28;20476;-80
2024/04/05 08:41:42;;;;;;;2.60;1.40;;;18.00;99.90;;;;;;5037994;28;20903;-80
2024/04/05 08:44:07;;;;;;;2.47;1.40;;;18.20;99.90;;;;;;5054810;28;20381;-80
2024/04/05 08:46:33;;;;;;;3.93;1.43;;;18.60;99.90;;;;;;5037197;28;20385;-80
2024/04/05 08:49:01;;;;;;;1.73;1.35;;;20.20;99.90;;;;;;5055554;28;20454;-79
2024/04/05 08:51:27;;;;;;;2.60;1.10;;;18.10;99.90;;;;;;5055367;28;20497;-80
2024/04/05 08:53:53;;;;;;;2.60;1.30;;;18.20;99.90;;;;;;5037107;28;20907;-80
2024/04/05 08:56:18;;;;;;;3.47;1.20;;;18.80;99.90;;;;;;5037606;28;20832;-80
2024/04/05 08:58:44;;;;;;;2.60;1.20;;;18.80;99.90;;;;;;5039004;28;20405;-80
2024/04/05 09:01:10;;;;;;;3.10;1.50;;;18.50;99.90;;;;;;5066547;28;20445;-78
2024/04/05 09:03:36;;;;;;;3.55;1.30;;;18.50;99.90;;;;;;5060411;28;20385;-80
2024/04/05 09:06:01;;;;;;;2.10;1.10;;;19.20;99.90;;;;;;5036957;28;20477;-80
2024/04/05 09:08:27;;;;;;;1.47;1.00;;;18.80;99.90;;;;;;5037391;28;20405;-80
2024/04/05 09:10:52;;;;;;;2.47;1.03;;;19.90;99.90;;;;;;5054978;28;20409;-80
2024/04/05 09:13:20;;;;;;;3.50;1.20;;;18.90;99.90;;;;;;5036812;28;20480;-80
2024/04/05 09:15:52;;;;;;;2.47;1.35;;;19.60;99.90;;;;;;5036266;28;20431;-80
2024/04/05 09:18:25;;;;;;;3.13;1.10;;;19.80;99.90;;;;;;5054744;28;20382;-80
2024/04/05 09:20:51;;;;;;;2.47;1.00;;;21.40;99.90;;;;;;5037302;28;20869;-80
2024/04/05 09:23:16;;;;;;;3.90;1.20;;;19.80;99.90;;;;;;5036791;28;20404;-80
2024/04/05 09:25:43;;;;;;;3.90;1.30;;;19.80;99.90;;;;;;5036169;28;20389;-80
2024/04/05 09:28:18;;;;;;;1.73;0.90;;;21.90;99.90;;;;;;5057056;28;20436;-79
2024/04/05 09:30:46;;;;;;;1.80;1.20;;;21.50;99.90;;;;;;5062344;28;20428;-80
2024/04/05 09:33:19;;;;;;;2.50;0.90;;;22.00;99.90;;;;;;5044560;28;20389;-79
2024/04/05 09:35:45;;;;;;;1.43;1.00;;;21.40;99.90;;;;;;5062951;28;20819;-80
2024/04/05 09:38:13;;;;;;;1.52;0.80;;;21.50;99.90;;;;;;5059371;28;20432;-80
2024/04/05 09:40:40;;;;;;;2.58;1.05;;;21.10;99.90;;;;;;5038227;28;20884;-80
2024/04/05 09:43:07;;;;;;;2.07;0.83;;;21.90;99.90;;;;;;5054802;28;20400;-79
2024/04/05 09:45:38;;;;;;;1.00;0.70;;;21.00;99.90;;;;;;5036598;28;20389;-81
2024/04/05 09:48:04;;;;;;;2.00;1.00;;;22.60;99.90;;;;;;5036506;28;21281;-80
2024/04/05 09:50:30;;;;;;;2.42;1.10;;;21.20;99.90;;;;;;5036623;28;20923;-80
2024/04/05 09:52:59;;;;;;;1.70;1.00;;;21.20;99.90;;;;;;5055352;28;20388;-81
2024/04/05 09:55:29;;;;;;;2.10;0.90;;;20.00;99.90;;;;;;5036069;28;20393;-79
2024/04/05 09:57:55;;;;;;;2.50;1.10;;;22.00;31.00;;;;;;5035705;28;20396;-79
2024/04/05 10:00:24;;;;;;;3.83;1.30;;;21.70;99.90;;;;;;5036172;28;20480;-79
2024/04/05 10:02:52;;;;;;;2.53;1.07;;;21.10;99.90;;;;;;5053461;28;20404;-80
2024/04/05 10:05:28;;;;;;;1.60;1.20;;;20.50;99.90;;;;;;5036883;28;20755;-79
2024/04/05 10:07:55;;;;;;;3.38;0.98;;;20.60;99.90;;;;;;5035893;28;20405;-80
2024/04/05 10:10:28;;;;;;;2.40;0.80;;;21.40;99.90;;;;;;5039988;28;20398;-78
2024/04/05 10:12:54;;;;;;;1.42;0.95;;;21.10;99.90;;;;;;5057281;28;20483;-79
2024/04/05 10:15:25;;;;;;;2.22;1.20;;;21.30;99.90;;;;;;5039396;28;20378;-78
2024/04/05 10:17:56;;;;;;;2.00;1.00;;;23.00;99.90;;;;;;5068126;28;20386;-78
2024/04/05 10:20:22;;;;;;;5.15;1.50;;;22.10;99.90;;;;;;5069063;28;20381;-79
2024/04/05 10:22:58;;;;;;;1.60;0.70;;;21.10;99.90;;;;;;5066401;28;20397;-78
2024/04/05 10:25:23;;;;;;;2.60;1.05;;;21.90;99.90;;;;;;5029339;28;20402;-80
2024/04/05 10:27:53;;;;;;;1.07;0.90;;;22.50;99.70;;;;;;5029876;28;20383;-79
2024/04/05 10:30:19;;;;;;;1.02;0.70;;;22.20;99.90;;;;;;5048223;28;20475;-79
2024/04/05 10:33:00;;;;;;;2.40;1.15;;;22.00;99.90;;;;;;5046473;28;20387;-79
2024/04/05 10:35:28;;;;;;;1.00;0.80;;;22.10;99.90;;;;;;5028978;28;20383;-79
2024/04/05 10:37:57;;;;;;;3.13;1.02;;;22.90;99.90;;;;;;5043354;28;20398;-78
2024/04/05 10:40:26;;;;;;;1.95;0.70;;;23.10;99.90;;;;;;5025273;28;20387;-79
2024/04/05 10:42:52;;;;;;;1.88;0.93;;;21.90;94.90;;;;;;5026433;28;20458;-78
2024/04/05 10:45:18;;;;;;;5.70;0.90;;;21.50;99.90;;;;;;5026475;28;20411;-79
2024/04/05 10:47:52;;;;;;;2.00;1.17;;;23.80;81.90;;;;;;5026724;28;20486;-78
2024/04/05 10:50:20;;;;;;;2.55;0.90;;;22.70;3.80;;;;;;5042272;28;20438;-79
2024/04/05 10:52:52;;;;;;;1.70;0.80;;;23.50;6.30;;;;;;5044783;28;20387;-79
2024/04/05 10:55:18;;;;;;;1.50;0.90;;;22.20;99.90;;;;;;5045617;28;20414;-78
2024/04/05 10:57:44;;;;;;;2.20;1.00;;;23.90;1.00;;;;;;5045984;28;20425;-79
2024/04/05 11:00:13;;;;;;;1.70;0.82;;;22.10;99.90;;;;;;5043338;28;20421;-80
2024/04/05 11:02:40;;;;;;;2.03;1.00;;;22.30;1.00;;;;;;5021095;28;20395;-79
2024/04/05 11:05:14;;;;;;;1.90;0.70;;;22.50;1.00;;;;;;5038845;28;20410;-80
2024/04/05 11:07:42;;;;;;;1.60;0.90;;;22.70;1.00;;;;;;5020477;28;20411;-81
2024/04/05 11:10:17;;;;;;;1.80;0.93;;;23.10;1.00;;;;;;5038109;28;20869;-81
2024/04/05 11:12:46;;;;;;;2.15;0.90;;;22.80;1.00;;;;;;5021024;28;20395;-80
2024/04/05 11:15:12;;;;;;;1.38;0.80;;;22.20;1.00;;;;;;5037729;28;20436;-80
2024/04/05 11:17:38;;;;;;;1.50;0.83;;;22.60;1.00;;;;;;5020562;28;20887;-80
2024/04/05 11:20:09;;;;;;;1.20;0.90;;;22.60;1.00;;;;;;5021639;28;20383;-80
2024/04/05 11:22:35;;;;;;;1.35;0.80;;;22.20;1.00;;;;;;5046467;28;20418;-78
2024/04/05 11:25:00;;;;;;;1.40;0.80;;;23.30;1.00;;;;;;5065436;28;20393;-78
2024/04/05 11:27:30;;;;;;;1.50;0.70;;;26.90;1.00;;;;;;5051263;28;20402;-77
2024/04/05 11:29:56;;;;;;;1.10;0.80;;;23.70;1.00;;;;;;5066697;28;20392;-80
2024/04/05 11:32:29;;;;;;;1.92;0.80;;;24.40;1.00;;;;;;5043764;28;20393;-80
2024/04/05 11:35:01;;;;;;;2.20;1.00;;;23.50;1.00;;;;;;5040246;28;20393;-80
2024/04/05 11:37:28;;;;;;;1.60;0.90;;;24.50;1.00;;;;;;5058953;28;20377;-81
2024/04/05 11:39:54;;;;;;;1.40;0.90;;;24.30;1.00;;;;;;5058344;28;20457;-80
2024/04/05 11:42:20;;;;;;;2.00;0.70;;;25.10;1.00;;;;;;5039683;28;20390;-81
2024/04/05 11:44:46;;;;;;;1.00;0.70;;;;;;;;;;5057358;28;20435;-80
2024/04/05 11:47:11;;;;;;;1.40;0.70;;;24.40;1.00;;;;;;5038763;28;20874;-78
2024/04/05 11:49:37;;;;;;;1.10;0.70;;;24.10;1.00;;;;;;5056364;28;20389;-80
2024/04/05 11:52:03;;;;;;;1.63;0.90;;;23.70;1.00;;;;;;5056936;28;20424;-80
2024/04/05 11:54:30;;;;;;;1.25;0.93;;;;;;;;;;5056319;28;20385;-80
2024/04/05 11:56:56;;;;;;;1.50;0.80;;;24.90;1.00;;;;;;5039079;28;20393;-80
2024/04/05 11:59:23;;;;;;;1.50;0.80;;;23.30;1.00;;;;;;5057220;28;20409;-82
2024/04/05 12:01:49;;;;;;;1.60;0.70;;;24.10;1.00;;;;;;5056542;28;20381;-79
2024/04/05 12:04:15;;;;;;;1.80;1.00;;;26.00;1.00;;;;;;5056072;28;20386;-80
2024/04/05 12:06:40;;;;;;;1.08;0.70;;;25.10;90.30;;;;;;5056542;28;20446;-79
2024/04/05 12:09:08;;;;;;;1.60;0.80;;;;;;;;;;5056151;28;20436;-80
2024/04/05 12:11:34;;;;;;;1.00;0.70;;;;;;;;;;5057245;28;20500;-79
2024/04/05 12:13:59;;;;;;;1.48;0.77;;;23.60;90.70;;;;;;5043355;28;20421;-78
2024/04/05 12:16:25;;;;;;;2.10;0.82;;;23.10;99.90;;;;;;5047563;28;20390;-79
2024/04/05 12:18:51;;;;;;;2.13;1.10;;;23.10;99.90;;;;;;5049634;28;20378;-79
2024/04/05 12:21:16;;;;;;;1.60;0.80;;;23.00;72.70;;;;;;5040921;28;20397;-80
2024/04/05 12:23:42;;;;;;;1.10;0.80;;;23.30;33.40;;;;;;5057346;28;20382;-79
2024/04/05 12:26:09;;;;;;;2.00;1.10;;;22.90;1.00;;;;;;5037699;28;20397;-80
2024/04/05 12:28:35;;;;;;;1.35;0.95;;;23.10;1.00;;;;;;5039083;28;20789;-80
2024/04/05 12:31:01;;;;;;;1.70;0.95;;;23.20;1.00;;;;;;5038586;28;20397;-80
2024/04/05 12:33:27;;;;;;;1.50;0.90;;;23.50;1.00;;;;;;5038160;28;20381;-79
2024/04/05 12:35:58;;;;;;;1.40;0.93;;;23.80;1.00;;;;;;5055346;28;20384;-79
2024/04/05 12:38:33;;;;;;;1.37;0.90;;;24.00;1.00;;;;;;5056256;28;20389;-80
2024/04/05 12:40:58;;;;;;;2.03;1.10;;;25.80;1.00;;;;;;5047869;28;20382;-79
2024/04/05 12:43:24;;;;;;;2.30;1.00;;;24.40;1.00;;;;;;5058650;28;20408;-79
2024/04/05 12:46:07;;;;;;;2.57;1.00;;;23.90;1.00;;;;;;5076637;28;20396;-78
2024/04/05 12:48:35;;;;;;;2.60;0.80;;;24.00;1.00;;;;;;5043955;28;20398;-78